Nearby METAR Reports

 

KSJC - San Jose, California, USA
Distance from station: NE 14km
Actualización: 24/05/2022 09:53
Despejado
Despejado
 Viento del ONO
Viento: ONO 6 km/h
Temperatura: 14°C
Rocío: 10°C
Humedad: 77%
Barómetro: 1011.5 hPa
Clouds: Despejado
Visibilidad: 16 km
2022/05/24 07:53 KSJC 240753Z AUTO 30003KT 10SM CLR 14/10 A2987 RMK AO2 SLP115 T01440100 402830117
KNUQ - Moffett Nas/Mtn, California, USA
Distance from station: N 14km
Actualización: 24/05/2022 10:30

 Viento del calm
Viento: Calma
Temperatura: 14°C
Rocío: 10°C
Humedad: 77%
Barómetro: 1011.5 hPa
Visibilidad: 14 km
2022/05/24 08:30 KNUQ 240830Z AUTO 00000KT 9SM 14/10 A2987 RMK AO2
 
KPAO - Palo Alto, California, USA
Distance from station: NNO 23km
Actualización: 24/05/2022 05:47
NOT Current
Despejado
Despejado
 Viento del NNO
Viento: NNO 15 km/h
Temperatura: 16°C
Rocío: 9°C
Humedad: 63%
Barómetro: 1012.2 hPa
Clouds: Despejado
Visibilidad: 16 km
2022/05/24 03:47 KPAO 240347Z 33008KT 10SM SKC 16/09 A2989 RMK LAST
KRHV - San Jose/Reid, California, USA
Distance from station: ENE 19km
Actualización: 24/05/2022 06:50
NOT Current
Despejado
Despejado
 Viento del O
Viento: O 9 km/h
Temperatura: 17°C
Rocío: 8°C
Humedad: 56%
Barómetro: 1012.5 hPa
Clouds: Despejado
Visibilidad: 16 km
2022/05/24 04:50 KRHV 240450Z 28005KT 10SM SKC 17/08 A2990
 
KOAK - Oakland, California, USA
Distance from station: NNO 50km
Actualización: 24/05/2022 09:53
Despejado
Despejado
 Viento del NNE
Viento: NNE 6 km/h
Temperatura: 12°C
Rocío: 9°C
Humedad: 82%
Barómetro: 1012.2 hPa
Clouds: Despejado
Visibilidad: 16 km
2022/05/24 07:53 KOAK 240753Z 03003KT 10SM CLR 12/09 A2989 RMK AO2 SLP118 T01220089 402170100
KSQL - San Carlos Airpo, California, USA
Distance from station: NO 34km
Actualización: 24/05/2022 10:35
Despejado
Despejado
 Viento del calm
Viento: Calma
Temperatura: 14°C
Rocío: 9°C
Humedad: 72%
Barómetro: 1011.9 hPa
Clouds: Despejado
Visibilidad: 16 km
2022/05/24 08:35 KSQL 240835Z AUTO 00000KT 10SM CLR 14/09 A2988 RMK AO2
 
KSFO - San Francisco, California, USA
Distance from station: NO 49km
Actualización: 24/05/2022 09:56
Despejado
Despejado
 Viento del NO
Viento: NO 9 km/h
Temperatura: 13°C
Rocío: 8°C
Humedad: 72%
Barómetro: 1011.5 hPa
Clouds: Despejado
Visibilidad: 16 km
2022/05/24 07:56 KSFO 240756Z 31005KT 10SM CLR 13/08 A2987 RMK AO2 SLP116 T01280083 402060111
KE16 - San Martin, California, USA
Distance from station: ESE 43km
Actualización: 24/05/2022 10:35
Parcialmente nuboso
Parcialmente nuboso
 Viento del calm
Viento: Calma
Temperatura: 12°C
Rocío: 7°C
Humedad: 72%
Barómetro: 1012.2 hPa
Clouds: Parcialmente nuboso
Visibilidad: 16 km
Cloud details: Few Clouds 488 m
Parcialmente nuboso 762 m
2022/05/24 08:35 KE16 240835Z AUTO 00000KT 10SM FEW016 SCT025 12/07 A2989 RMK AO2 PWINO PNO
 
KWVI - Watsonville, California, USA
Distance from station: SSE 44km
Actualización: 24/05/2022 09:53
Despejado
Despejado
 Viento del calm
Viento: Calma
Temperatura: 10°C
Rocío: 8°C
Humedad: 88%
Barómetro: 1012.2 hPa
Clouds: Despejado
Visibilidad: 14 km
2022/05/24 07:53 KWVI 240753Z AUTO 00000KT 9SM CLR 10/08 A2989 RMK AO2 SLP121 T01000083 402330067
KHAF - Half Moon Bay, California, USA
Distance from station: ONO 50km
Actualización: 24/05/2022 10:35
Mist, Despejado
Mist, Despejado
 Viento del calm
Viento: Calma
Temperatura: 7°C
Rocío: 7°C
Humedad: 100%
Barómetro: 1012.2 hPa
Resumen: Mist
Clouds: Despejado
Visibilidad: 8 km
2022/05/24 08:35 KHAF 240835Z AUTO 00000KT 5SM BR CLR 07/07 A2989 RMK AO2
 
KHWD - Hayward, California, USA
Distance from station: N 44km
Actualización: 24/05/2022 09:54
Despejado
Despejado
 Viento del calm
Viento: Calma
Temperatura: 14°C
Rocío: 9°C
Humedad: 72%
Barómetro: 1011.5 hPa
Clouds: Despejado
Visibilidad: 16 km
2022/05/24 07:54 KHWD 240754Z 00000KT 10SM CLR 14/09 A2987 RMK AO2 SLP123 T01390094 402280111
KLVK - Livermore, California, USA
Distance from station: NNE 51km
Actualización: 24/05/2022 09:53
Despejado
Despejado
 Viento del NO
Viento: NO 6 km/h
Temperatura: 16°C
Rocío: 8°C
Humedad: 59%
Barómetro: 1011.2 hPa
Clouds: Despejado
Visibilidad: 16 km
2022/05/24 07:53 KLVK 240753Z AUTO 31003KT 10SM CLR 16/08 A2986 RMK AO2 SLP107 T01560083 403110111